sensor_id;sensor_type;location;lat;lon;timestamp;pressure;altitude;pressure_sealevel;temperature;humidity
57572;BME280;44459;43.522;24.470;2023-03-21T00:00:13;100109.63;;;9.27;85.97
57572;BME280;44459;43.522;24.470;2023-03-21T00:02:39;100103.53;;;9.34;85.46
57572;BME280;44459;43.522;24.470;2023-03-21T00:05:05;100098.28;;;9.34;85.51
57572;BME280;44459;43.522;24.470;2023-03-21T00:07:31;100095.66;;;9.36;85.50
57572;BME280;44459;43.522;24.470;2023-03-21T00:09:56;100099.22;;;9.39;84.59
57572;BME280;44459;43.522;24.470;2023-03-21T00:12:21;100099.25;;;9.44;84.67
57572;BME280;44459;43.522;24.470;2023-03-21T00:14:47;100094.81;;;9.41;85.03
57572;BME280;44459;43.522;24.470;2023-03-21T00:17:12;100098.31;;;9.39;85.47
57572;BME280;44459;43.522;24.470;2023-03-21T00:19:40;100093.91;;;9.38;85.69
57572;BME280;44459;43.522;24.470;2023-03-21T00:22:06;100085.09;;;9.33;85.95
57572;BME280;44459;43.522;24.470;2023-03-21T00:24:32;100084.22;;;9.32;85.13
57572;BME280;44459;43.522;24.470;2023-03-21T00:26:58;100086.03;;;9.39;84.66
57572;BME280;44459;43.522;24.470;2023-03-21T00:29:23;100086.91;;;9.41;85.21
57572;BME280;44459;43.522;24.470;2023-03-21T00:31:49;100083.34;;;9.33;86.95
57572;BME280;44459;43.522;24.470;2023-03-21T00:34:14;100083.28;;;9.27;86.17
57572;BME280;44459;43.522;24.470;2023-03-21T00:36:40;100091.22;;;9.30;86.70
57572;BME280;44459;43.522;24.470;2023-03-21T00:39:05;100084.19;;;9.26;86.98
57572;BME280;44459;43.522;24.470;2023-03-21T00:41:31;100080.56;;;9.18;87.87
57572;BME280;44459;43.522;24.470;2023-03-21T00:43:56;100081.50;;;9.25;87.50
57572;BME280;44459;43.522;24.470;2023-03-21T00:46:22;100070.13;;;9.27;87.17
57572;BME280;44459;43.522;24.470;2023-03-21T00:48:47;100074.47;;;9.22;88.05
57572;BME280;44459;43.522;24.470;2023-03-21T00:51:18;100059.56;;;9.23;88.03
57572;BME280;44459;43.522;24.470;2023-03-21T00:53:50;100048.94;;;9.12;87.31
57572;BME280;44459;43.522;24.470;2023-03-21T00:56:15;100072.66;;;9.17;87.74
57572;BME280;44459;43.522;24.470;2023-03-21T00:58:41;100077.84;;;9.07;88.07
57572;BME280;44459;43.522;24.470;2023-03-21T01:01:06;100071.72;;;9.08;88.04
57572;BME280;44459;43.522;24.470;2023-03-21T01:03:33;100061.09;;;9.02;88.54
57572;BME280;44459;43.522;24.470;2023-03-21T01:06:10;100055.78;;;8.96;88.94
57572;BME280;44459;43.522;24.470;2023-03-21T01:08:41;100062.03;;;9.04;88.55
57572;BME280;44459;43.522;24.470;2023-03-21T01:11:10;100062.91;;;9.06;88.34
57572;BME280;44459;43.522;24.470;2023-03-21T01:13:36;100056.78;;;9.07;88.19
57572;BME280;44459;43.522;24.470;2023-03-21T01:16:03;100056.81;;;9.09;89.04
57572;BME280;44459;43.522;24.470;2023-03-21T01:18:30;100051.50;;;9.07;89.00
57572;BME280;44459;43.522;24.470;2023-03-21T01:20:58;100055.91;;;9.08;88.15
57572;BME280;44459;43.522;24.470;2023-03-21T01:23:24;100062.97;;;9.14;88.01
57572;BME280;44459;43.522;24.470;2023-03-21T01:25:52;100075.28;;;9.15;87.95
57572;BME280;44459;43.522;24.470;2023-03-21T01:28:18;100065.63;;;9.16;88.11
57572;BME280;44459;43.522;24.470;2023-03-21T01:30:50;100060.31;;;9.11;88.01
57572;BME280;44459;43.522;24.470;2023-03-21T01:33:17;100062.94;;;9.08;88.20
57572;BME280;44459;43.522;24.470;2023-03-21T01:35:43;100067.31;;;9.07;88.10
57572;BME280;44459;43.522;24.470;2023-03-21T01:38:09;100060.31;;;9.08;87.82
57572;BME280;44459;43.522;24.470;2023-03-21T01:40:35;100065.53;;;9.06;88.26
57572;BME280;44459;43.522;24.470;2023-03-21T01:43:01;100069.94;;;9.07;87.83
57572;BME280;44459;43.522;24.470;2023-03-21T01:48:30;100073.41;;;9.02;87.30
57572;BME280;44459;43.522;24.470;2023-03-21T01:50:57;100086.53;;;8.97;87.36
57572;BME280;44459;43.522;24.470;2023-03-21T01:53:26;100087.38;;;8.95;85.46
57572;BME280;44459;43.522;24.470;2023-03-21T01:55:56;100087.34;;;8.92;82.76
57572;BME280;44459;43.522;24.470;2023-03-21T01:58:22;100082.97;;;8.94;81.65
57572;BME280;44459;43.522;24.470;2023-03-21T02:00:49;100080.41;;;8.98;81.34
57572;BME280;44459;43.522;24.470;2023-03-21T02:03:16;100075.13;;;9.00;80.20
57572;BME280;44459;43.522;24.470;2023-03-21T02:05:52;100078.69;;;9.03;79.89
57572;BME280;44459;43.522;24.470;2023-03-21T02:08:21;100057.63;;;9.02;80.20
57572;BME280;44459;43.522;24.470;2023-03-21T02:10:48;100065.53;;;9.06;80.15
57572;BME280;44459;43.522;24.470;2023-03-21T02:13:15;100061.19;;;9.08;80.04
57572;BME280;44459;43.522;24.470;2023-03-21T02:15:45;100062.03;;;9.07;80.40
57572;BME280;44459;43.522;24.470;2023-03-21T02:18:15;100067.34;;;9.14;79.34
57572;BME280;44459;43.522;24.470;2023-03-21T02:20:54;100068.28;;;9.17;80.02
57572;BME280;44459;43.522;24.470;2023-03-21T02:32:04;100066.44;;;9.08;81.39
57572;BME280;44459;43.522;24.470;2023-03-21T02:34:57;100075.19;;;9.04;82.47
57572;BME280;44459;43.522;24.470;2023-03-21T02:37:42;100074.31;;;9.05;82.59
57572;BME280;44459;43.522;24.470;2023-03-21T02:40:19;100061.16;;;9.05;82.91
57572;BME280;44459;43.522;24.470;2023-03-21T02:45:29;100071.75;;;9.12;83.30
57572;BME280;44459;43.522;24.470;2023-03-21T02:48:01;100069.06;;;9.07;84.01
57572;BME280;44459;43.522;24.470;2023-03-21T02:52:57;100063.72;;;8.98;85.76
57572;BME280;44459;43.522;24.470;2023-03-21T02:55:26;100067.25;;;8.98;85.98
57572;BME280;44459;43.522;24.470;2023-03-21T02:57:55;100061.88;;;8.92;87.04
57572;BME280;44459;43.522;24.470;2023-03-21T03:00:24;100068.94;;;8.93;86.44
57572;BME280;44459;43.522;24.470;2023-03-21T03:02:50;100073.31;;;8.93;86.32
57572;BME280;44459;43.522;24.470;2023-03-21T03:05:19;100067.13;;;8.89;86.30
57572;BME280;44459;43.522;24.470;2023-03-21T03:08:00;100070.63;;;8.87;88.21
57572;BME280;44459;43.522;24.470;2023-03-21T03:10:57;100081.94;;;8.80;87.76
57572;BME280;44459;43.522;24.470;2023-03-21T03:13:49;100081.91;;;8.78;87.69
57572;BME280;44459;43.522;24.470;2023-03-21T03:16:39;100079.28;;;8.78;88.37
57572;BME280;44459;43.522;24.470;2023-03-21T03:19:15;100079.25;;;8.75;88.98
57572;BME280;44459;43.522;24.470;2023-03-21T03:21:53;100076.69;;;8.80;88.72
57572;BME280;44459;43.522;24.470;2023-03-21T03:24:23;100077.50;;;8.74;89.49
57572;BME280;44459;43.522;24.470;2023-03-21T03:26:52;100089.75;;;8.72;89.73
57572;BME280;44459;43.522;24.470;2023-03-21T03:29:19;100081.88;;;8.71;89.98
57572;BME280;44459;43.522;24.470;2023-03-21T03:31:56;100073.03;;;8.69;90.70
57572;BME280;44459;43.522;24.470;2023-03-21T03:34:27;100079.13;;;8.63;91.01
57572;BME280;44459;43.522;24.470;2023-03-21T03:36:58;100077.28;;;8.53;92.00
57572;BME280;44459;43.522;24.470;2023-03-21T03:39:35;100076.44;;;8.57;91.62
57572;BME280;44459;43.522;24.470;2023-03-21T03:42:05;100071.25;;;8.63;91.12
57572;BME280;44459;43.522;24.470;2023-03-21T03:44:34;100066.84;;;8.62;90.94
57572;BME280;44459;43.522;24.470;2023-03-21T03:47:04;100067.72;;;8.63;90.93
57572;BME280;44459;43.522;24.470;2023-03-21T03:49:36;100067.75;;;8.64;90.88
57572;BME280;44459;43.522;24.470;2023-03-21T03:52:11;100060.72;;;8.63;90.74
57572;BME280;44459;43.522;24.470;2023-03-21T03:54:42;100058.94;;;8.62;90.79
57572;BME280;44459;43.522;24.470;2023-03-21T03:57:08;100058.03;;;8.57;91.01
57572;BME280;44459;43.522;24.470;2023-03-21T03:59:37;100054.44;;;8.52;91.18
57572;BME280;44459;43.522;24.470;2023-03-21T04:02:03;100057.06;;;8.49;90.85
57572;BME280;44459;43.522;24.470;2023-03-21T04:04:28;100056.91;;;8.35;91.64
57572;BME280;44459;43.522;24.470;2023-03-21T04:06:56;100058.59;;;8.33;91.55
57572;BME280;44459;43.522;24.470;2023-03-21T04:09:22;100049.63;;;8.19;91.90
57572;BME280;44459;43.522;24.470;2023-03-21T04:11:48;100036.28;;;8.02;92.53
57572;BME280;44459;43.522;24.470;2023-03-21T04:14:13;100036.16;;;7.93;93.07
57572;BME280;44459;43.522;24.470;2023-03-21T04:16:39;100041.38;;;7.92;93.21
57572;BME280;44459;43.522;24.470;2023-03-21T04:19:04;100043.19;;;7.96;92.88
57572;BME280;44459;43.522;24.470;2023-03-21T04:21:30;100052.84;;;7.98;92.54
57572;BME280;44459;43.522;24.470;2023-03-21T04:23:55;100054.63;;;7.99;92.28
57572;BME280;44459;43.522;24.470;2023-03-21T04:26:21;100052.84;;;7.98;92.32
57572;BME280;44459;43.522;24.470;2023-03-21T04:28:48;100058.94;;;7.93;92.99
57572;BME280;44459;43.522;24.470;2023-03-21T04:31:13;100058.03;;;7.91;92.91
57572;BME280;44459;43.522;24.470;2023-03-21T04:33:39;100067.63;;;7.89;93.09
57572;BME280;44459;43.522;24.470;2023-03-21T04:36:06;100065.78;;;7.82;93.12
57572;BME280;44459;43.522;24.470;2023-03-21T04:38:34;100068.31;;;7.76;93.57
57572;BME280;44459;43.522;24.470;2023-03-21T04:41:00;100059.50;;;7.72;93.42
57572;BME280;44459;43.522;24.470;2023-03-21T04:43:26;100071.84;;;7.78;93.57
57572;BME280;44459;43.522;24.470;2023-03-21T04:45:53;100066.66;;;7.81;93.25
57572;BME280;44459;43.522;24.470;2023-03-21T04:48:19;100078.91;;;7.82;92.91
57572;BME280;44459;43.522;24.470;2023-03-21T04:50:49;100083.28;;;7.80;92.74
57572;BME280;44459;43.522;24.470;2023-03-21T04:53:14;100085.84;;;7.77;93.36
57572;BME280;44459;43.522;24.470;2023-03-21T04:55:40;100106.88;;;7.78;93.40
57572;BME280;44459;43.522;24.470;2023-03-21T04:58:05;100104.31;;;7.81;93.60
57572;BME280;44459;43.522;24.470;2023-03-21T05:00:32;100098.22;;;7.85;92.93
57572;BME280;44459;43.522;24.470;2023-03-21T05:03:03;100104.41;;;7.87;92.87
57572;BME280;44459;43.522;24.470;2023-03-21T05:05:29;100097.50;;;7.95;92.60
57572;BME280;44459;43.522;24.470;2023-03-21T05:07:56;100100.25;;;8.01;92.34
57572;BME280;44459;43.522;24.470;2023-03-21T05:10:21;100111.69;;;8.06;92.17
57572;BME280;44459;43.522;24.470;2023-03-21T05:12:46;100104.75;;;8.12;91.71
57572;BME280;44459;43.522;24.470;2023-03-21T05:15:12;100105.69;;;8.15;91.40
57572;BME280;44459;43.522;24.470;2023-03-21T05:17:37;100102.28;;;8.22;91.16
57572;BME280;44459;43.522;24.470;2023-03-21T05:20:03;100100.56;;;8.26;91.39
57572;BME280;44459;43.522;24.470;2023-03-21T05:22:30;100098.03;;;8.32;90.79
57572;BME280;44459;43.522;24.470;2023-03-21T05:25:06;100098.94;;;8.34;91.01
57572;BME280;44459;43.522;24.470;2023-03-21T05:27:33;100110.47;;;8.45;90.93
57572;BME280;44459;43.522;24.470;2023-03-21T05:30:12;100119.38;;;8.53;90.65
57572;BME280;44459;43.522;24.470;2023-03-21T05:32:38;100110.69;;;8.60;90.61
57572;BME280;44459;43.522;24.470;2023-03-21T05:35:04;100116.06;;;8.72;89.25
57572;BME280;44459;43.522;24.470;2023-03-21T05:37:30;100115.31;;;8.82;89.25
57572;BME280;44459;43.522;24.470;2023-03-21T05:39:55;100115.47;;;8.97;89.39
57572;BME280;44459;43.522;24.470;2023-03-21T05:42:21;100117.38;;;9.09;88.86
57572;BME280;44459;43.522;24.470;2023-03-21T05:44:46;100129.78;;;9.24;86.68
57572;BME280;44459;43.522;24.470;2023-03-21T05:47:13;100133.34;;;9.29;86.16
57572;BME280;44459;43.522;24.470;2023-03-21T05:49:39;100116.75;;;9.36;86.51
57572;BME280;44459;43.522;24.470;2023-03-21T05:52:04;100112.44;;;9.47;86.99
57572;BME280;44459;43.522;24.470;2023-03-21T05:54:30;100102.09;;;9.68;85.82
57572;BME280;44459;43.522;24.470;2023-03-21T05:56:55;100088.19;;;9.92;85.78
57572;BME280;44459;43.522;24.470;2023-03-21T05:59:21;100101.63;;;10.33;82.86
57572;BME280;44459;43.522;24.470;2023-03-21T06:01:46;100098.22;;;10.66;82.03
57572;BME280;44459;43.522;24.470;2023-03-21T06:04:12;100093.94;;;10.95;79.68
57572;BME280;44459;43.522;24.470;2023-03-21T06:06:37;100100.13;;;11.20;78.80
57572;BME280;44459;43.522;24.470;2023-03-21T06:09:02;100092.22;;;11.24;78.67
57572;BME280;44459;43.522;24.470;2023-03-21T06:11:30;100108.97;;;11.34;78.16
57572;BME280;44459;43.522;24.470;2023-03-21T06:13:56;100101.03;;;11.46;76.94
57572;BME280;44459;43.522;24.470;2023-03-21T06:16:21;100100.19;;;11.76;76.51
57572;BME280;44459;43.522;24.470;2023-03-21T06:18:47;100114.22;;;12.19;75.09
57572;BME280;44459;43.522;24.470;2023-03-21T06:21:12;100111.47;;;12.47;73.47
57572;BME280;44459;43.522;24.470;2023-03-21T06:23:38;100096.41;;;12.69;73.14
57572;BME280;44459;43.522;24.470;2023-03-21T06:26:04;100106.84;;;12.98;71.02
57572;BME280;44459;43.522;24.470;2023-03-21T06:28:30;100111.13;;;13.23;70.97
57572;BME280;44459;43.522;24.470;2023-03-21T06:30:55;100109.22;;;13.46;69.67
57572;BME280;44459;43.522;24.470;2023-03-21T06:33:21;100101.94;;;13.68;68.48
57572;BME280;44459;43.522;24.470;2023-03-21T06:35:51;100091.91;;;14.00;67.65
57572;BME280;44459;43.522;24.470;2023-03-21T06:38:17;100096.03;;;14.27;65.22
57572;BME280;44459;43.522;24.470;2023-03-21T06:40:45;100091.41;;;14.49;65.37
57572;BME280;44459;43.522;24.470;2023-03-21T06:43:11;100079.28;;;14.95;64.79
57572;BME280;44459;43.522;24.470;2023-03-21T06:45:36;100086.78;;;15.26;63.16
57572;BME280;44459;43.522;24.470;2023-03-21T06:48:01;100082.03;;;15.46;63.35
57572;BME280;44459;43.522;24.470;2023-03-21T06:50:27;100077.59;;;16.00;61.62
57572;BME280;44459;43.522;24.470;2023-03-21T06:52:52;100077.69;;;16.40;59.97
57572;BME280;44459;43.522;24.470;2023-03-21T06:55:18;100077.28;;;16.61;59.92
57572;BME280;44459;43.522;24.470;2023-03-21T06:57:47;100087.94;;;17.01;57.14
57572;BME280;44459;43.522;24.470;2023-03-21T07:00:12;100082.06;;;17.25;55.51
57572;BME280;44459;43.522;24.470;2023-03-21T07:02:38;100088.91;;;17.37;54.10
57572;BME280;44459;43.522;24.470;2023-03-21T07:05:05;100082.00;;;17.28;54.17
57572;BME280;44459;43.522;24.470;2023-03-21T07:07:30;100076.94;;;17.53;53.46
57572;BME280;44459;43.522;24.470;2023-03-21T07:09:56;100087.28;;;17.68;54.33
57572;BME280;44459;43.522;24.470;2023-03-21T07:12:22;100088.63;;;17.49;55.26
57572;BME280;44459;43.522;24.470;2023-03-21T07:14:47;100088.16;;;17.69;53.80
57572;BME280;44459;43.522;24.470;2023-03-21T07:17:13;100086.81;;;17.86;52.04
57572;BME280;44459;43.522;24.470;2023-03-21T07:19:38;100088.06;;;17.73;53.62
57572;BME280;44459;43.522;24.470;2023-03-21T07:22:04;100083.22;;;17.50;53.14
57572;BME280;44459;43.522;24.470;2023-03-21T07:24:29;100095.09;;;17.76;52.74
57572;BME280;44459;43.522;24.470;2023-03-21T07:26:55;100087.59;;;18.24;52.81
57572;BME280;44459;43.522;24.470;2023-03-21T07:29:20;100072.03;;;18.70;50.92
57572;BME280;44459;43.522;24.470;2023-03-21T07:31:48;100082.81;;;18.96;50.68
57572;BME280;44459;43.522;24.470;2023-03-21T07:34:13;100089.44;;;19.13;50.04
57572;BME280;44459;43.522;24.470;2023-03-21T07:36:40;100080.03;;;18.99;51.02
57572;BME280;44459;43.522;24.470;2023-03-21T07:39:06;100093.84;;;18.55;50.41
57572;BME280;44459;43.522;24.470;2023-03-21T07:41:31;100093.31;;;18.08;51.49
57572;BME280;44459;43.522;24.470;2023-03-21T07:43:57;100092.78;;;17.96;52.63
57572;BME280;44459;43.522;24.470;2023-03-21T07:46:22;100088.06;;;17.73;54.72
57572;BME280;44459;43.522;24.470;2023-03-21T07:48:48;100093.19;;;17.42;52.80
57572;BME280;44459;43.522;24.470;2023-03-21T07:51:13;100097.34;;;17.19;54.07
57572;BME280;44459;43.522;24.470;2023-03-21T07:53:39;100092.44;;;17.00;56.53
57572;BME280;44459;43.522;24.470;2023-03-21T07:56:06;100093.72;;;16.81;57.71
57572;BME280;44459;43.522;24.470;2023-03-21T07:58:32;100095.75;;;16.70;58.13
57572;BME280;44459;43.522;24.470;2023-03-21T08:00:59;100096.03;;;16.55;57.51
57572;BME280;44459;43.522;24.470;2023-03-21T08:03:25;100088.91;;;16.57;58.53
57572;BME280;44459;43.522;24.470;2023-03-21T08:05:54;100102.16;;;16.62;57.65
57572;BME280;44459;43.522;24.470;2023-03-21T08:08:20;100097.56;;;16.68;59.36
57572;BME280;44459;43.522;24.470;2023-03-21T08:10:45;100095.97;;;16.59;60.28
57572;BME280;44459;43.522;24.470;2023-03-21T08:13:11;100105.72;;;16.62;61.13
57572;BME280;44459;43.522;24.470;2023-03-21T08:15:37;100096.03;;;16.55;61.19
57572;BME280;44459;43.522;24.470;2023-03-21T08:18:07;100105.91;;;16.50;61.42
57572;BME280;44459;43.522;24.470;2023-03-21T08:20:32;100102.41;;;16.48;62.11
57572;BME280;44459;43.522;24.470;2023-03-21T08:22:58;100102.56;;;16.40;62.06
57572;BME280;44459;43.522;24.470;2023-03-21T08:25:23;100097.31;;;16.36;62.49
57572;BME280;44459;43.522;24.470;2023-03-21T08:27:50;100102.75;;;16.30;62.67
57572;BME280;44459;43.522;24.470;2023-03-21T08:30:18;100109.84;;;16.31;62.91
57572;BME280;44459;43.522;24.470;2023-03-21T08:32:44;100103.66;;;16.29;62.24
57572;BME280;44459;43.522;24.470;2023-03-21T08:35:12;100104.16;;;16.03;61.94
57572;BME280;44459;43.522;24.470;2023-03-21T08:37:40;100104.44;;;15.86;63.96
57572;BME280;44459;43.522;24.470;2023-03-21T08:40:08;100097.50;;;15.76;63.06
57572;BME280;44459;43.522;24.470;2023-03-21T08:42:38;100099.50;;;15.65;63.84
57572;BME280;44459;43.522;24.470;2023-03-21T08:45:05;100101.94;;;15.77;65.79
57572;BME280;44459;43.522;24.470;2023-03-21T08:47:31;100098.81;;;15.52;64.40
57572;BME280;44459;43.522;24.470;2023-03-21T08:49:57;100091.06;;;15.37;65.12
57572;BME280;44459;43.522;24.470;2023-03-21T08:52:23;100108.75;;;15.40;65.23
57572;BME280;44459;43.522;24.470;2023-03-21T08:54:50;100103.47;;;15.37;65.94
57572;BME280;44459;43.522;24.470;2023-03-21T08:57:15;100105.97;;;15.46;65.95
57572;BME280;44459;43.522;24.470;2023-03-21T08:59:41;100096.31;;;15.40;65.47
57572;BME280;44459;43.522;24.470;2023-03-21T09:02:06;100095.34;;;15.46;65.49
57572;BME280;44459;43.522;24.470;2023-03-21T09:04:32;100098.84;;;15.51;65.96
57572;BME280;44459;43.522;24.470;2023-03-21T09:06:58;100094.56;;;15.39;65.81
57572;BME280;44459;43.522;24.470;2023-03-21T09:09:26;100094.56;;;15.38;66.13
57572;BME280;44459;43.522;24.470;2023-03-21T09:11:52;100091.19;;;15.28;67.26
57572;BME280;44459;43.522;24.470;2023-03-21T09:14:18;100093.13;;;15.17;67.61
57572;BME280;44459;43.522;24.470;2023-03-21T09:16:43;100084.28;;;15.15;67.07
57572;BME280;44459;43.522;24.470;2023-03-21T09:19:08;100084.44;;;15.04;67.13
57572;BME280;44459;43.522;24.470;2023-03-21T09:21:34;100081.72;;;15.09;69.10
57572;BME280;44459;43.522;24.470;2023-03-21T09:24:00;100072.94;;;15.05;67.67
57572;BME280;44459;43.522;24.470;2023-03-21T09:26:27;100079.03;;;15.10;67.37
57572;BME280;44459;43.522;24.470;2023-03-21T09:28:53;100082.53;;;15.14;68.76
57572;BME280;44459;43.522;24.470;2023-03-21T09:31:20;100090.41;;;15.22;67.87
57572;BME280;44459;43.522;24.470;2023-03-21T09:33:48;100080.81;;;15.11;66.85
57572;BME280;44459;43.522;24.470;2023-03-21T09:36:13;100081.75;;;15.07;66.57
57572;BME280;44459;43.522;24.470;2023-03-21T09:38:40;100070.00;;;15.24;67.47
57572;BME280;44459;43.522;24.470;2023-03-21T09:44:14;100078.41;;;15.54;67.30
57572;BME280;44459;43.522;24.470;2023-03-21T09:49:48;100069.81;;;15.86;65.32
57572;BME280;44459;43.522;24.470;2023-03-21T09:52:23;100074.81;;;16.04;65.89
57572;BME280;44459;43.522;24.470;2023-03-21T09:54:51;100070.38;;;16.06;63.32
57572;BME280;44459;43.522;24.470;2023-03-21T09:57:32;100075.16;;;16.32;64.30
57572;BME280;44459;43.522;24.470;2023-03-21T10:00:03;100071.53;;;16.38;63.65
57572;BME280;44459;43.522;24.470;2023-03-21T10:02:46;100053.78;;;16.37;63.73
57572;BME280;44459;43.522;24.470;2023-03-21T10:05:25;100056.38;;;16.40;63.41
57572;BME280;44459;43.522;24.470;2023-03-21T10:07:59;100045.78;;;16.37;65.50
57572;BME280;44459;43.522;24.470;2023-03-21T10:10:35;100053.66;;;16.43;64.07
57572;BME280;44459;43.522;24.470;2023-03-21T10:13:04;100049.13;;;16.48;63.82
57572;BME280;44459;43.522;24.470;2023-03-21T10:15:35;100051.84;;;16.45;63.78
57572;BME280;44459;43.522;24.470;2023-03-21T10:18:03;100048.66;;;16.28;63.93
57572;BME280;44459;43.522;24.470;2023-03-21T10:20:34;100049.53;;;16.27;62.68
57572;BME280;44459;43.522;24.470;2023-03-21T10:23:03;100051.13;;;16.37;63.25
57572;BME280;44459;43.522;24.470;2023-03-21T10:25:36;100051.03;;;16.40;61.39
57572;BME280;44459;43.522;24.470;2023-03-21T10:28:04;100062.44;;;16.48;61.78
57572;BME280;44459;43.522;24.470;2023-03-21T10:30:38;100067.22;;;16.75;61.62
57572;BME280;44459;43.522;24.470;2023-03-21T10:33:06;100066.03;;;16.88;61.93
57572;BME280;44459;43.522;24.470;2023-03-21T10:35:34;100071.78;;;17.08;60.71
57572;BME280;44459;43.522;24.470;2023-03-21T10:38:02;100072.41;;;17.20;60.04
57572;BME280;44459;43.522;24.470;2023-03-21T10:40:27;100066.91;;;17.27;60.04
57572;BME280;44459;43.522;24.470;2023-03-21T10:42:54;100062.53;;;17.25;59.04
57572;BME280;44459;43.522;24.470;2023-03-21T10:45:22;100051.91;;;17.22;58.58
57572;BME280;44459;43.522;24.470;2023-03-21T10:47:49;100050.72;;;17.35;59.52
57572;BME280;44459;43.522;24.470;2023-03-21T10:50:18;100045.84;;;17.52;58.62
57572;BME280;44459;43.522;24.470;2023-03-21T10:52:55;100040.03;;;17.70;57.20
57572;BME280;44459;43.522;24.470;2023-03-21T10:55:32;100039.13;;;17.71;56.48
57572;BME280;44459;43.522;24.470;2023-03-21T10:58:02;100034.16;;;17.57;55.34
57572;BME280;44459;43.522;24.470;2023-03-21T11:00:36;100025.69;;;17.74;56.80
57572;BME280;44459;43.522;24.470;2023-03-21T11:03:04;100025.69;;;17.74;55.68
57572;BME280;44459;43.522;24.470;2023-03-21T11:05:47;100019.56;;;17.71;53.83
57572;BME280;44459;43.522;24.470;2023-03-21T11:08:17;100025.94;;;17.67;54.27
57572;BME280;44459;43.522;24.470;2023-03-21T11:11:05;100027.44;;;17.77;53.55
57572;BME280;44459;43.522;24.470;2023-03-21T11:13:42;100027.00;;;17.92;52.70
57572;BME280;44459;43.522;24.470;2023-03-21T11:16:22;100013.28;;;18.05;52.41
57572;BME280;44459;43.522;24.470;2023-03-21T11:18:49;100023.53;;;18.21;50.76
57572;BME280;44459;43.522;24.470;2023-03-21T11:21:15;100011.44;;;18.07;50.51
57572;BME280;44459;43.522;24.470;2023-03-21T11:23:47;100002.56;;;18.38;53.17
57572;BME280;44459;43.522;24.470;2023-03-21T11:26:40;99996.03;;;18.17;50.59
57572;BME280;44459;43.522;24.470;2023-03-21T11:29:25;99990.97;;;18.08;51.42
57572;BME280;44459;43.522;24.470;2023-03-21T11:31:57;99981.31;;;18.02;51.16
57572;BME280;44459;43.522;24.470;2023-03-21T11:34:31;99976.34;;;18.20;52.78
57572;BME280;44459;43.522;24.470;2023-03-21T11:37:01;99967.00;;;18.36;54.34
57572;BME280;44459;43.522;24.470;2023-03-21T11:39:31;99960.59;;;18.40;54.06
57572;BME280;44459;43.522;24.470;2023-03-21T11:41:57;99948.91;;;18.15;52.50
57572;BME280;44459;43.522;24.470;2023-03-21T11:44:34;99966.81;;;18.40;54.19
57572;BME280;44459;43.522;24.470;2023-03-21T11:47:07;99949.50;;;18.55;54.57
57572;BME280;44459;43.522;24.470;2023-03-21T11:49:34;99953.53;;;18.39;51.78
57572;BME280;44459;43.522;24.470;2023-03-21T11:57:33;99952.63;;;18.69;55.60
57572;BME280;44459;43.522;24.470;2023-03-21T12:00:14;99953.06;;;18.54;53.45
57572;BME280;44459;43.522;24.470;2023-03-21T12:05:38;99931.94;;;18.45;50.90
57572;BME280;44459;43.522;24.470;2023-03-21T12:08:38;99928.81;;;18.31;50.82
57572;BME280;44459;43.522;24.470;2023-03-21T12:24:56;99927.38;;;18.48;50.33
57572;BME280;44459;43.522;24.470;2023-03-21T12:41:39;99915.53;;;18.85;49.03
57572;BME280;44459;43.522;24.470;2023-03-21T12:44:14;99910.16;;;18.86;48.98
57572;BME280;44459;43.522;24.470;2023-03-21T12:46:53;99913.03;;;19.06;46.78
57572;BME280;44459;43.522;24.470;2023-03-21T12:49:56;99912.25;;;19.03;46.28
57572;BME280;44459;43.522;24.470;2023-03-21T12:52:31;99913.22;;;19.02;47.78
57572;BME280;44459;43.522;24.470;2023-03-21T12:55:19;99911.75;;;18.92;47.79
57572;BME280;44459;43.522;24.470;2023-03-21T13:00:35;99904.84;;;18.85;47.88
57572;BME280;44459;43.522;24.470;2023-03-21T13:03:28;99894.66;;;18.96;49.99
57572;BME280;44459;43.522;24.470;2023-03-21T13:05:54;99898.78;;;19.06;49.00
57572;BME280;44459;43.522;24.470;2023-03-21T13:11:16;99892.72;;;19.01;50.37
57572;BME280;44459;43.522;24.470;2023-03-21T13:14:05;99882.38;;;18.90;53.45
57572;BME280;44459;43.522;24.470;2023-03-21T13:16:44;99878.63;;;18.70;51.95
57572;BME280;44459;43.522;24.470;2023-03-21T13:24:46;99879.78;;;18.61;52.94
57572;BME280;44459;43.522;24.470;2023-03-21T13:27:27;99877.34;;;18.53;51.89
57572;BME280;44459;43.522;24.470;2023-03-21T13:30:24;99873.03;;;18.48;52.10
57572;BME280;44459;43.522;24.470;2023-03-21T13:32:54;99880.91;;;18.54;50.42
57572;BME280;44459;43.522;24.470;2023-03-21T13:35:25;99882.69;;;18.53;51.56
57572;BME280;44459;43.522;24.470;2023-03-21T13:38:20;99877.56;;;18.46;52.06
57572;BME280;44459;43.522;24.470;2023-03-21T13:43:44;99882.75;;;18.52;50.14
57572;BME280;44459;43.522;24.470;2023-03-21T13:54:15;99862.03;;;18.29;51.68
57572;BME280;44459;43.522;24.470;2023-03-21T14:04:31;99851.91;;;17.83;51.25
57572;BME280;44459;43.522;24.470;2023-03-21T14:07:06;99859.44;;;17.69;52.54
57572;BME280;44459;43.522;24.470;2023-03-21T14:09:49;99860.53;;;17.62;51.86
57572;BME280;44459;43.522;24.470;2023-03-21T14:12:19;99859.03;;;17.50;52.38
57572;BME280;44459;43.522;24.470;2023-03-21T14:14:59;99855.97;;;17.33;51.51
57572;BME280;44459;43.522;24.470;2023-03-21T14:17:30;99858.63;;;17.33;53.08
57572;BME280;44459;43.522;24.470;2023-03-21T14:20:06;99859.97;;;17.17;51.52
57572;BME280;44459;43.522;24.470;2023-03-21T14:22:37;99856.44;;;17.15;52.47
57572;BME280;44459;43.522;24.470;2023-03-21T14:25:06;99859.38;;;17.06;52.18